Time;durP1;ratioP1;P1;durP2;ratioP2;P2;SDS_P1;SDS_P2;PMS_P1;PMS_P2;Temp;Humidity;BMP_temperature;BMP_pressure;BME280_temperature;BME280_humidity;BME280_pressure;Samples;Min_cycle;Max_cycle;Signal;HPM_P1;HPM_P2
2022/06/14 00:03:15;;;;;;;0.20;0.10;;;;;;;;;;4947811;28;20046;-87
2022/06/14 00:05:42;;;;;;;0.20;0.10;;;;;;;;;;4930711;28;20117;-88
2022/06/14 00:08:08;;;;;;;0.20;0.10;;;;;;;;;;4924228;28;20104;-88
2022/06/14 00:10:34;;;;;;;0.20;0.10;;;;;;;;;;4954932;28;20228;-88
2022/06/14 00:13:00;;;;;;;0.20;0.10;;;;;;;;;;4951891;28;20523;-88
2022/06/14 00:15:26;;;;;;;0.20;0.10;;;;;;;;;;4932534;28;20135;-89
2022/06/14 00:17:53;;;;;;;0.20;0.10;;;;;;;;;;4930001;28;20042;-88
2022/06/14 00:20:19;;;;;;;0.20;0.00;;;;;;;;;;4934384;28;20039;-88
2022/06/14 00:22:45;;;;;;;0.20;0.10;;;;;;;;;;4951630;28;20074;-89
2022/06/14 00:25:25;;;;;;;0.20;0.10;;;;;;;;;;4951086;28;20134;-87
2022/06/14 00:27:52;;;;;;;0.20;0.00;;;;;;;;;;4940984;28;20125;-88
2022/06/14 00:30:18;;;;;;;0.20;0.00;;;;;;;;;;4949605;28;20697;-87
2022/06/14 00:32:44;;;;;;;0.20;0.10;;;;;;;;;;4956089;28;20640;-88
2022/06/14 00:35:11;;;;;;;0.20;0.10;;;;;;;;;;4954913;28;20038;-89
2022/06/14 00:37:37;;;;;;;0.20;0.10;;;;;;;;;;4955489;28;20050;-88
2022/06/14 00:40:03;;;;;;;0.20;0.10;;;;;;;;;;4955715;28;20763;-88
2022/06/14 00:42:29;;;;;;;0.20;0.10;;;;;;;;;;4960129;28;20101;-88
2022/06/14 00:45:07;;;;;;;0.20;0.10;;;;;;;;;;4958431;28;20038;-88
2022/06/14 00:47:36;;;;;;;0.20;0.10;;;;;;;;;;4956120;28;20034;-87
2022/06/14 00:50:03;;;;;;;0.20;0.10;;;;;;;;;;4955395;28;20065;-88
2022/06/14 00:52:40;;;;;;;0.20;0.10;;;;;;;;;;4936588;28;20042;-88
2022/06/14 00:55:27;;;;;;;0.20;0.10;;;;;;;;;;4953419;28;20046;-88
2022/06/14 00:58:00;;;;;;;0.20;0.10;;;;;;;;;;4942463;28;20069;-88
2022/06/14 01:00:29;;;;;;;0.20;0.10;;;;;;;;;;4953520;28;20101;-88
2022/06/14 01:02:57;;;;;;;0.20;0.10;;;;;;;;;;4939443;28;20136;-87
2022/06/14 01:08:29;;;;;;;0.20;0.10;;;;;;;;;;4954828;28;20537;-88
2022/06/14 01:10:55;;;;;;;0.20;0.10;;;;;;;;;;4955968;28;20120;-88
2022/06/14 01:13:22;;;;;;;0.20;0.10;;;;;;;;;;4922788;28;20100;-88
2022/06/14 01:15:49;;;;;;;0.20;0.10;;;;;;;;;;4924350;28;20072;-87
2022/06/14 01:18:16;;;;;;;0.20;0.10;;;;;;;;;;4960833;28;20038;-89
2022/06/14 01:20:42;;;;;;;0.20;0.10;;;;;;;;;;4947640;28;20058;-88
2022/06/14 01:23:09;;;;;;;0.20;0.10;;;;;;;;;;4935590;28;20057;-88
2022/06/14 01:25:40;;;;;;;0.20;0.10;;;;;;;;;;4950939;28;20197;-88
2022/06/14 01:28:07;;;;;;;0.20;0.10;;;;;;;;;;4935021;28;20068;-88
2022/06/14 01:30:35;;;;;;;0.20;0.10;;;;;;;;;;4951349;28;20517;-88
2022/06/14 01:33:03;;;;;;;0.20;0.10;;;;;;;;;;4954953;28;20121;-88
2022/06/14 01:35:32;;;;;;;0.20;0.10;;;;;;;;;;4950464;28;20081;-88
2022/06/14 01:38:00;;;;;;;0.20;0.10;;;;;;;;;;4936509;28;20044;-89
2022/06/14 01:40:34;;;;;;;0.20;0.10;;;;;;;;;;4947644;28;20046;-89
2022/06/14 01:43:06;;;;;;;0.20;0.10;;;;;;;;;;4938642;28;20050;-89
2022/06/14 01:45:38;;;;;;;0.20;0.10;;;;;;;;;;4951592;28;20046;-89
2022/06/14 01:48:10;;;;;;;0.20;0.10;;;;;;;;;;4953616;28;20042;-89
2022/06/14 01:54:12;;;;;;;0.20;0.10;;;;;;;;;;4952542;28;20046;-88
2022/06/14 01:56:41;;;;;;;0.20;0.10;;;;;;;;;;4872796;29;20069;-88
2022/06/14 01:59:13;;;;;;;0.20;0.10;;;;;;;;;;4943180;28;20042;-89
2022/06/14 02:01:58;;;;;;;0.20;0.10;;;;;;;;;;4939113;28;20442;-88
2022/06/14 02:04:39;;;;;;;0.20;0.10;;;;;;;;;;4952182;28;20156;-88
2022/06/14 02:07:05;;;;;;;0.20;0.10;;;;;;;;;;4947527;28;20042;-88
2022/06/14 02:09:52;;;;;;;0.20;0.00;;;;;;;;;;4948748;28;20470;-88
2022/06/14 02:12:21;;;;;;;0.20;0.10;;;;;;;;;;4947881;28;20276;-89
2022/06/14 02:14:51;;;;;;;0.20;0.10;;;;;;;;;;4925755;28;20792;-87
2022/06/14 02:17:25;;;;;;;0.20;0.10;;;;;;;;;;4943937;28;20447;-88
2022/06/14 02:20:14;;;;;;;0.20;0.10;;;;;;;;;;4946912;28;20150;-88
2022/06/14 02:22:43;;;;;;;0.20;0.10;;;;;;;;;;4945361;28;20042;-88
2022/06/14 02:25:14;;;;;;;0.20;0.08;;;;;;;;;;4947202;28;20385;-88
2022/06/14 02:27:58;;;;;;;0.20;0.10;;;;;;;;;;4953886;28;20053;-88
2022/06/14 02:30:35;;;;;;;0.20;0.10;;;;;;;;;;4951902;28;20045;-89
2022/06/14 02:33:01;;;;;;;0.20;0.10;;;;;;;;;;4942846;28;20121;-89
2022/06/14 02:35:34;;;;;;;0.20;0.10;;;;;;;;;;4958147;28;20073;-89
2022/06/14 02:38:05;;;;;;;0.20;0.10;;;;;;;;;;4959841;28;20298;-89
2022/06/14 02:40:38;;;;;;;0.20;0.10;;;;;;;;;;4963333;28;20487;-89
2022/06/14 02:43:11;;;;;;;0.20;0.10;;;;;;;;;;4965700;28;20042;-89
2022/06/14 02:45:41;;;;;;;0.20;0.10;;;;;;;;;;4965486;28;20136;-89
2022/06/14 02:48:16;;;;;;;0.20;0.10;;;;;;;;;;4966200;28;20061;-89
2022/06/14 02:51:04;;;;;;;0.20;0.10;;;;;;;;;;4965815;28;20034;-89
2022/06/14 02:53:37;;;;;;;0.20;0.10;;;;;;;;;;4963773;28;20046;-89
2022/06/14 02:56:16;;;;;;;0.20;0.10;;;;;;;;;;4962131;28;20866;-89
2022/06/14 02:58:57;;;;;;;0.20;0.10;;;;;;;;;;4960324;28;20065;-89
2022/06/14 03:01:28;;;;;;;0.20;0.00;;;;;;;;;;4948735;28;20050;-89
2022/06/14 03:04:00;;;;;;;0.20;0.10;;;;;;;;;;4964472;28;20042;-89
2022/06/14 03:06:33;;;;;;;0.20;0.10;;;;;;;;;;4957579;28;20141;-89
2022/06/14 03:08:59;;;;;;;;;;;;;;;;;;4958077;28;20030;-89
2022/06/14 03:11:31;;;;;;;0.20;0.10;;;;;;;;;;4959717;28;20174;-90
2022/06/14 03:14:03;;;;;;;0.20;0.10;;;;;;;;;;4941690;28;20039;-90
2022/06/14 03:16:41;;;;;;;0.20;0.10;;;;;;;;;;4974631;28;20089;-90
2022/06/14 03:19:14;;;;;;;0.20;0.10;;;;;;;;;;4961460;28;20050;-89
2022/06/14 03:21:46;;;;;;;0.20;0.10;;;;;;;;;;4960874;28;20061;-89
2022/06/14 03:24:31;;;;;;;0.20;0.10;;;;;;;;;;4964167;28;20518;-89
2022/06/14 03:26:58;;;;;;;0.20;0.10;;;;;;;;;;4946788;28;20050;-90
2022/06/14 03:29:35;;;;;;;0.20;0.10;;;;;;;;;;4942920;28;20403;-90
2022/06/14 03:32:06;;;;;;;0.20;0.10;;;;;;;;;;4939686;28;20034;-89
2022/06/14 03:34:38;;;;;;;0.20;0.10;;;;;;;;;;4943948;28;20038;-89
2022/06/14 03:37:05;;;;;;;0.20;0.10;;;;;;;;;;4962627;28;20034;-89
2022/06/14 03:39:33;;;;;;;0.20;0.10;;;;;;;;;;4960083;28;20034;-89
2022/06/14 03:42:00;;;;;;;0.20;0.10;;;;;;;;;;4959738;28;20050;-89
2022/06/14 03:44:27;;;;;;;0.20;0.10;;;;;;;;;;4959236;28;20466;-89
2022/06/14 03:47:12;;;;;;;0.20;0.10;;;;;;;;;;4959952;28;20042;-89
2022/06/14 03:49:43;;;;;;;0.20;0.10;;;;;;;;;;4959595;28;20078;-89
2022/06/14 03:52:28;;;;;;;0.20;0.10;;;;;;;;;;4964960;28;20095;-89
2022/06/14 03:55:00;;;;;;;0.20;0.10;;;;;;;;;;4957929;28;20054;-90
2022/06/14 03:57:41;;;;;;;0.20;0.10;;;;;;;;;;4956419;28;20069;-88
2022/06/14 04:00:24;;;;;;;0.20;0.10;;;;;;;;;;4957187;28;20046;-90
2022/06/14 04:02:54;;;;;;;0.20;0.10;;;;;;;;;;4955571;28;20038;-89
2022/06/14 04:05:26;;;;;;;0.20;0.10;;;;;;;;;;4960729;28;21206;-89
2022/06/14 04:07:59;;;;;;;0.20;0.10;;;;;;;;;;4944707;28;20035;-89
2022/06/14 04:10:31;;;;;;;0.20;0.10;;;;;;;;;;4962046;28;20311;-89
2022/06/14 04:13:04;;;;;;;0.20;0.10;;;;;;;;;;4961914;28;20204;-89
2022/06/14 04:15:44;;;;;;;0.20;0.10;;;;;;;;;;4962946;28;20119;-89
2022/06/14 04:18:35;;;;;;;0.20;0.08;;;;;;;;;;4961791;28;20034;-89
2022/06/14 04:21:19;;;;;;;0.20;0.10;;;;;;;;;;4961885;28;20145;-89
2022/06/14 04:23:45;;;;;;;0.20;0.10;;;;;;;;;;4959750;28;20501;-89
2022/06/14 04:26:30;;;;;;;0.20;0.10;;;;;;;;;;4954700;28;20065;-89
2022/06/14 04:28:59;;;;;;;0.20;0.10;;;;;;;;;;4961197;28;20073;-89
2022/06/14 04:31:34;;;;;;;0.20;0.10;;;;;;;;;;4960246;28;20046;-89
2022/06/14 04:34:13;;;;;;;0.20;0.10;;;;;;;;;;4953359;28;20042;-89
2022/06/14 04:36:46;;;;;;;0.20;0.10;;;;;;;;;;4955036;28;20168;-89
2022/06/14 04:39:12;;;;;;;0.20;0.10;;;;;;;;;;4964908;28;20042;-90
2022/06/14 04:41:43;;;;;;;0.20;0.10;;;;;;;;;;4963009;28;20066;-89
2022/06/14 04:44:11;;;;;;;0.20;0.10;;;;;;;;;;4964718;28;20050;-89
2022/06/14 04:46:43;;;;;;;0.20;0.10;;;;;;;;;;4953835;28;20717;-89
2022/06/14 04:49:13;;;;;;;0.20;0.10;;;;;;;;;;4960717;28;20088;-88
2022/06/14 04:51:42;;;;;;;0.20;0.10;;;;;;;;;;4952779;28;20439;-90
2022/06/14 04:54:26;;;;;;;0.20;0.10;;;;;;;;;;4938784;28;20058;-89
2022/06/14 04:56:56;;;;;;;0.20;0.10;;;;;;;;;;4950234;28;20042;-87
2022/06/14 04:59:48;;;;;;;0.20;0.10;;;;;;;;;;4954187;28;20042;-89
2022/06/14 05:02:20;;;;;;;0.20;0.10;;;;;;;;;;4930450;28;20141;-89
2022/06/14 05:04:50;;;;;;;0.20;0.10;;;;;;;;;;4949324;28;20085;-88
2022/06/14 05:07:19;;;;;;;0.20;0.10;;;;;;;;;;4923759;28;20344;-89
2022/06/14 05:09:51;;;;;;;0.20;0.10;;;;;;;;;;4949640;28;20129;-90
2022/06/14 05:12:23;;;;;;;0.20;0.10;;;;;;;;;;4956515;28;20046;-90
2022/06/14 05:14:59;;;;;;;0.20;0.10;;;;;;;;;;4950487;28;20153;-89
2022/06/14 05:17:25;;;;;;;0.20;0.10;;;;;;;;;;4922317;28;20044;-89
2022/06/14 05:20:01;;;;;;;0.20;0.10;;;;;;;;;;4955085;28;20042;-90
2022/06/14 05:22:39;;;;;;;0.20;0.10;;;;;;;;;;4958282;28;20074;-90
2022/06/14 05:25:06;;;;;;;0.20;0.10;;;;;;;;;;4950389;28;20046;-88
2022/06/14 05:27:44;;;;;;;0.20;0.10;;;;;;;;;;4929881;28;20026;-90
2022/06/14 05:30:21;;;;;;;0.20;0.10;;;;;;;;;;4951656;28;20272;-90
2022/06/14 05:33:08;;;;;;;0.20;0.10;;;;;;;;;;4936823;28;20088;-89
2022/06/14 05:35:44;;;;;;;0.20;0.10;;;;;;;;;;4953641;28;20520;-89
2022/06/14 05:38:26;;;;;;;0.20;0.10;;;;;;;;;;4940378;28;20046;-90
2022/06/14 05:41:35;;;;;;;0.20;0.10;;;;;;;;;;4954819;28;20057;-90
2022/06/14 05:44:35;;;;;;;0.20;0.10;;;;;;;;;;4960301;28;20077;-90
2022/06/14 05:47:12;;;;;;;0.20;0.10;;;;;;;;;;4907726;28;20050;-90
2022/06/14 05:49:47;;;;;;;0.20;0.10;;;;;;;;;;4960830;28;20042;-89
2022/06/14 05:52:13;;;;;;;0.20;0.10;;;;;;;;;;4950825;28;20042;-90
2022/06/14 05:55:30;;;;;;;0.20;0.10;;;;;;;;;;4962872;28;22632;-91
2022/06/14 05:58:39;;;;;;;0.20;0.10;;;;;;;;;;4846826;29;20052;-90
2022/06/14 06:01:24;;;;;;;0.20;0.10;;;;;;;;;;4937596;28;20841;-90
2022/06/14 06:03:51;;;;;;;0.20;0.10;;;;;;;;;;4960727;28;20664;-90
2022/06/14 06:06:19;;;;;;;0.20;0.10;;;;;;;;;;4965259;28;20038;-90
2022/06/14 06:09:14;;;;;;;0.20;0.10;;;;;;;;;;4957725;28;20257;-91
2022/06/14 06:11:45;;;;;;;0.20;0.00;;;;;;;;;;4933081;28;20125;-90
2022/06/14 06:17:37;;;;;;;0.20;0.10;;;;;;;;;;4966073;28;20953;-89
2022/06/14 06:20:35;;;;;;;0.20;0.10;;;;;;;;;;4973453;28;20034;-89
2022/06/14 06:23:35;;;;;;;0.20;0.10;;;;;;;;;;4968210;28;20081;-90
2022/06/14 06:26:02;;;;;;;0.20;0.00;;;;;;;;;;4970391;28;20050;-87
2022/06/14 06:28:32;;;;;;;0.20;0.10;;;;;;;;;;4965427;28;20240;-88
2022/06/14 06:31:05;;;;;;;0.20;0.10;;;;;;;;;;4969441;28;20125;-88
2022/06/14 06:33:33;;;;;;;0.43;0.30;;;;;;;;;;4946929;28;20128;-88
2022/06/14 06:36:24;;;;;;;0.20;0.10;;;;;;;;;;4961229;28;20066;-88
2022/06/14 06:38:59;;;;;;;0.20;0.00;;;;;;;;;;4953746;28;20078;-88
2022/06/14 06:41:58;;;;;;;0.20;0.10;;;;;;;;;;4963960;28;20088;-86
2022/06/14 06:44:46;;;;;;;0.20;0.05;;;;;;;;;;4968703;28;20053;-89
2022/06/14 06:47:15;;;;;;;0.20;0.08;;;;;;;;;;4955689;28;20589;-89
2022/06/14 06:53:04;;;;;;;0.20;0.00;;;;;;;;;;4949249;28;20055;-89
2022/06/14 06:55:36;;;;;;;0.20;0.10;;;;;;;;;;4954178;28;20031;-88
2022/06/14 06:58:04;;;;;;;0.20;0.10;;;;;;;;;;4955374;28;20161;-88
2022/06/14 07:00:31;;;;;;;0.38;0.20;;;;;;;;;;4962870;28;20617;-87
2022/06/14 07:03:20;;;;;;;0.20;0.10;;;;;;;;;;4941774;28;20523;-87
2022/06/14 07:05:57;;;;;;;0.20;0.10;;;;;;;;;;4922679;28;20478;-85
2022/06/14 07:08:43;;;;;;;0.20;0.10;;;;;;;;;;4952588;28;20120;-86
2022/06/14 07:11:12;;;;;;;0.20;0.10;;;;;;;;;;4970833;28;20109;-85
2022/06/14 07:14:00;;;;;;;0.20;0.10;;;;;;;;;;4955711;28;20042;-89
2022/06/14 07:16:31;;;;;;;0.20;0.10;;;;;;;;;;4970190;28;20081;-85
2022/06/14 07:19:01;;;;;;;0.20;0.10;;;;;;;;;;4942483;28;20034;-86
2022/06/14 07:21:31;;;;;;;0.20;0.10;;;;;;;;;;4955690;28;20482;-88
2022/06/14 07:24:15;;;;;;;;;;;;;;;;;;;;;
2022/06/14 07:26:47;;;;;;;0.20;0.10;;;;;;;;;;4964858;28;20097;-86
2022/06/14 07:29:37;;;;;;;0.20;0.10;;;;;;;;;;4968820;28;20707;-86
2022/06/14 07:32:06;;;;;;;0.20;0.10;;;;;;;;;;4955143;28;20105;-85
2022/06/14 07:34:34;;;;;;;0.20;0.10;;;;;;;;;;4957719;28;20038;-87
2022/06/14 07:37:09;;;;;;;0.20;0.10;;;;;;;;;;4955868;28;20034;-87
2022/06/14 07:39:55;;;;;;;0.20;0.10;;;;;;;;;;4951155;28;20077;-86
2022/06/14 07:42:39;;;;;;;0.20;0.10;;;;;;;;;;4957624;28;20038;-86
2022/06/14 07:45:21;;;;;;;0.20;0.10;;;;;;;;;;4960553;28;20270;-86
2022/06/14 07:48:04;;;;;;;0.20;0.10;;;;;;;;;;4947701;28;20038;-89
2022/06/14 07:50:40;;;;;;;0.20;0.10;;;;;;;;;;4961189;28;20065;-86
2022/06/14 07:53:20;;;;;;;0.20;0.10;;;12.20;99.90;;;;;;4962135;28;20531;-86
2022/06/14 07:55:47;;;;;;;0.20;0.10;;;16.10;99.90;;;;;;4959322;28;20137;-86
2022/06/14 07:58:21;;;;;;;0.20;0.10;;;;;;;;;;4957343;28;20125;-86
2022/06/14 08:01:08;;;;;;;0.20;0.00;;;;;;;;;;4962471;28;20046;-88
2022/06/14 08:03:46;;;;;;;0.20;0.05;;;;;;;;;;4945962;28;20042;-88
2022/06/14 08:06:19;;;;;;;0.20;0.10;;;;;;;;;;4960057;28;20093;-87
2022/06/14 08:08:47;;;;;;;0.20;0.10;;;;;;;;;;4959902;28;20042;-87
2022/06/14 08:11:16;;;;;;;0.20;0.00;;;;;;;;;;4965863;28;20034;-87
2022/06/14 08:13:45;;;;;;;0.20;0.10;;;;;;;;;;4961657;28;20041;-86
2022/06/14 08:16:12;;;;;;;0.20;0.10;;;;;;;;;;4959770;28;20391;-87
2022/06/14 08:18:45;;;;;;;0.38;0.35;;;;;;;;;;4932930;28;20095;-88
2022/06/14 08:21:11;;;;;;;0.20;0.10;;;;;;;;;;4964435;28;20038;-87
2022/06/14 08:23:42;;;;;;;0.20;0.10;;;;;;;;;;4965099;28;20180;-85
2022/06/14 08:26:12;;;;;;;0.20;0.10;;;;;;;;;;4960437;28;20042;-87
2022/06/14 08:28:41;;;;;;;0.20;0.10;;;;;;;;;;4963061;28;20040;-86
2022/06/14 08:31:12;;;;;;;0.20;0.10;;;;;;;;;;4960917;28;20070;-85
2022/06/14 08:33:41;;;;;;;0.20;0.10;;;;;;;;;;4967560;28;20522;-87
2022/06/14 08:36:23;;;;;;;0.20;0.10;;;;;;;;;;4960683;28;20558;-87
2022/06/14 08:38:51;;;;;;;0.20;0.10;;;;;;;;;;4962082;28;20045;-86
2022/06/14 08:41:50;;;;;;;0.20;0.00;;;;;;;;;;4961274;28;20038;-85
2022/06/14 08:44:48;;;;;;;0.20;0.10;;;;;;;;;;4952006;28;20085;-87
2022/06/14 08:47:23;;;;;;;0.20;0.10;;;;;;;;;;4948495;28;20051;-85
2022/06/14 08:50:15;;;;;;;0.20;0.10;;;;;;;;;;4963285;28;20046;-87
2022/06/14 08:53:00;;;;;;;0.20;0.10;;;;;;;;;;4944098;23;20054;-87
2022/06/14 08:55:46;;;;;;;0.20;0.10;;;;;;;;;;4926598;23;20498;-87
2022/06/14 08:58:41;;;;;;;0.20;0.10;;;;;;;;;;4902856;29;20039;-87
2022/06/14 09:01:15;;;;;;;0.20;0.10;;;;;;;;;;4902271;29;20055;-87
2022/06/14 09:03:51;;;;;;;0.20;0.10;;;;;;;;;;4901620;29;20035;-87
2022/06/14 09:06:18;;;;;;;0.20;0.10;;;;;;;;;;4901822;29;20039;-86
2022/06/14 09:09:09;;;;;;;0.20;0.10;;;;;;;;;;4906576;29;20091;-88
2022/06/14 09:11:52;;;;;;;0.20;0.10;;;;;;;;;;4911978;29;20480;-88
2022/06/14 09:14:24;;;;;;;0.20;0.10;;;;;;;;;;4904029;29;20031;-88
2022/06/14 09:17:10;;;;;;;0.20;0.10;;;;;;;;;;4907525;29;20102;-88
2022/06/14 09:19:55;;;;;;;0.20;0.10;;;;;;;;;;4906241;29;20059;-87
2022/06/14 09:22:39;;;;;;;0.20;0.10;;;;;;;;;;4910860;29;20480;-86
2022/06/14 09:25:14;;;;;;;0.20;0.00;;;;;;;;;;4913134;29;20043;-86
2022/06/14 09:28:03;;;;;;;0.20;0.00;;;;;;;;;;4911489;29;20102;-85
2022/06/14 09:30:51;;;;;;;0.20;0.10;;;;;;;;;;4896562;29;20075;-85
2022/06/14 09:33:32;;;;;;;0.20;0.10;;;;;;;;;;4908417;29;20135;-84
2022/06/14 09:36:21;;;;;;;0.20;0.10;;;;;;;;;;4915710;29;20035;-88
2022/06/14 09:39:03;;;;;;;0.20;0.10;;;;;;;;;;4919350;29;20512;-88
2022/06/14 09:41:48;;;;;;;0.20;0.10;;;;;;;;;;4910115;29;20594;-86
2022/06/14 09:44:17;;;;;;;0.20;0.10;;;;;;;;;;4918541;29;20567;-88
2022/06/14 09:46:56;;;;;;;0.20;0.10;;;;;;;;;;4912086;29;20138;-86
2022/06/14 09:49:42;;;;;;;0.20;0.10;;;;;;;;;;4908234;29;20135;-88
2022/06/14 09:52:12;;;;;;;0.20;0.08;;;;;;;;;;4909310;29;20035;-89
2022/06/14 09:54:38;;;;;;;0.20;0.08;;;;;;;;;;4913663;29;20040;-88
2022/06/14 09:57:23;;;;;;;0.20;0.10;;;;;;;;;;4903356;29;20046;-87
2022/06/14 09:59:50;;;;;;;0.20;0.10;;;;;;;;;;4910325;29;20403;-87
2022/06/14 10:06:27;;;;;;;;;;;;;;;;;;;;;
2022/06/14 10:09:19;;;;;;;0.20;0.10;;;;;;;;;;4912028;29;20039;-87
2022/06/14 10:12:09;;;;;;;0.40;0.13;;;;;;;;;;4913263;29;20436;-88
2022/06/14 10:14:54;;;;;;;0.20;0.10;;;;;;;;;;4892519;29;20098;-88
2022/06/14 10:17:39;;;;;;;0.20;0.10;;;;;;;;;;4916489;29;20051;-88
2022/06/14 10:20:40;;;;;;;0.20;0.00;;;;;;;;;;4897440;29;20043;-88
2022/06/14 10:23:33;;;;;;;0.20;0.00;;;;;;;;;;4888599;29;20350;-89
2022/06/14 10:28:52;;;;;;;0.20;0.10;;;;;;;;;;4925625;29;20044;-90
2022/06/14 10:31:25;;;;;;;0.20;0.10;;;;;;;;;;4907833;29;20617;-89
2022/06/14 10:33:58;;;;;;;0.20;0.10;;;;;;;;;;4902387;29;20119;-88
2022/06/14 10:36:30;;;;;;;0.20;0.10;;;;;;;;;;4908668;29;20043;-88
2022/06/14 10:39:15;;;;;;;0.20;0.10;;;;;;;;;;4908635;29;20043;-88
2022/06/14 10:42:08;;;;;;;0.20;0.10;;;;;;;;;;4905749;29;20058;-90
2022/06/14 10:44:34;;;;;;;0.20;0.10;;;;;;;;;;4906223;29;20056;-89
2022/06/14 10:47:12;;;;;;;0.20;0.10;;;;;;;;;;4909108;29;20499;-91
2022/06/14 10:49:45;;;;;;;0.20;0.10;;;;;;;;;;4912211;29;20330;-88
2022/06/14 10:52:23;;;;;;;0.20;0.10;;;;;;;;;;4907097;29;20035;-88
2022/06/14 10:55:02;;;;;;;0.20;0.10;;;;;;;;;;4906276;29;20042;-88
2022/06/14 10:58:10;;;;;;;0.20;0.10;;;;;;;;;;4903645;29;20118;-89
2022/06/14 11:00:59;;;;;;;0.20;0.10;;;;;;;;;;4862055;29;20071;-88
2022/06/14 11:03:35;;;;;;;0.20;0.10;;;;;;;;;;4903726;29;20140;-89
2022/06/14 11:06:22;;;;;;;0.20;0.10;;;;;;;;;;4902461;29;20039;-88
2022/06/14 11:09:10;;;;;;;0.20;0.10;;;;;;;;;;4903151;29;20131;-89
2022/06/14 11:12:03;;;;;;;0.20;0.10;;;;;;;;;;4905039;29;20435;-88
2022/06/14 11:14:44;;;;;;;0.20;0.10;;;;;;;;;;4906726;29;20054;-88
2022/06/14 11:17:17;;;;;;;0.20;0.10;;;;;;;;;;4904189;29;20062;-89
2022/06/14 11:19:52;;;;;;;0.20;0.10;;;;;;;;;;4906944;29;20402;-88
2022/06/14 11:22:28;;;;;;;0.60;0.57;;;;;;;;;;4903140;29;20039;-89
2022/06/14 11:25:03;;;;;;;0.20;0.10;;;;;;;;;;4886863;29;20167;-87
2022/06/14 11:27:33;;;;;;;0.20;0.10;;;;;;;;;;4898618;29;20091;-88
2022/06/14 11:30:18;;;;;;;0.20;0.10;;;;;;;;;;4884491;29;20036;-90
2022/06/14 11:33:11;;;;;;;0.20;0.10;;;;;;;;;;4897686;29;20397;-88
2022/06/14 11:38:48;;;;;;;0.20;0.10;;;;;;;;;;4915613;29;19927;-87
2022/06/14 11:41:18;;;;;;;0.20;0.10;;;;;;;;;;4899955;29;20042;-88
2022/06/14 11:43:48;;;;;;;0.20;0.10;;;;;;;;;;4912766;29;20359;-88
2022/06/14 11:46:22;;;;;;;0.20;0.10;;;;;;;;;;4902584;29;20055;-89
2022/06/14 11:49:00;;;;;;;0.20;0.10;;;;;;;;;;4900598;29;20520;-88
2022/06/14 11:51:38;;;;;;;0.20;0.10;;;;;;;;;;4907125;29;20126;-88
2022/06/14 11:54:17;;;;;;;0.20;0.10;;;;;;;;;;4906269;29;20035;-88
2022/06/14 11:56:52;;;;;;;0.20;0.10;;;;;;;;;;4896200;29;20047;-87
2022/06/14 11:59:25;;;;;;;1.27;0.80;;;;;;;;;;4907406;29;20110;-88
2022/06/14 12:01:51;;;;;;;;;;;;;;;;;;4891655;29;20040;-86
2022/06/14 12:04:30;;;;;;;0.20;0.00;;;;;;;;;;4904570;29;19919;-89
2022/06/14 12:07:26;;;;;;;0.20;0.10;;;;;;;;;;4902174;29;20060;-89
2022/06/14 12:10:20;;;;;;;0.20;0.10;;;;;;;;;;4885708;29;20091;-89
2022/06/14 12:13:05;;;;;;;0.20;0.10;;;;;;;;;;4900515;29;20040;-89
2022/06/14 12:15:43;;;;;;;0.20;0.10;;;;;;;;;;4905176;29;20055;-89
2022/06/14 12:18:16;;;;;;;0.20;0.10;;;;;;;;;;4904123;29;20078;-89
2022/06/14 12:20:52;;;;;;;0.20;0.10;;;;;;;;;;4897150;29;20071;-88
2022/06/14 12:23:37;;;;;;;0.20;0.10;;;;;;;;;;4904470;29;20043;-88
2022/06/14 12:29:16;;;;;;;0.20;0.10;;;;;;;;;;4910725;29;20047;-88
2022/06/14 12:31:42;;;;;;;0.20;0.08;;;;;;;;;;4910821;29;20070;-88
2022/06/14 12:34:13;;;;;;;0.20;0.10;;;;;;;;;;4911744;29;20036;-89
2022/06/14 12:36:48;;;;;;;0.20;0.10;;;;;;;;;;4892118;29;20162;-88
2022/06/14 12:39:17;;;;;;;0.20;0.10;;;;;;;;;;4904211;29;20046;-89
2022/06/14 12:42:06;;;;;;;0.20;0.10;;;;;;;;;;4903172;29;20271;-89
2022/06/14 12:44:55;;;;;;;0.20;0.10;;;16.10;99.90;;;;;;4897382;29;20083;-88
2022/06/14 12:47:35;;;;;;;0.20;0.10;;;;;;;;;;4911600;29;20044;-89
2022/06/14 12:50:11;;;;;;;0.20;0.10;;;;;;;;;;4907637;29;20544;-89
2022/06/14 12:52:41;;;;;;;0.20;0.13;;;;;;;;;;4906101;29;20071;-89
2022/06/14 12:55:29;;;;;;;0.20;0.20;;;19.80;99.90;;;;;;4905108;29;20126;-88
2022/06/14 12:58:13;;;;;;;0.20;0.10;;;;;;;;;;4899493;29;20060;-88
2022/06/14 13:03:40;;;;;;;0.20;0.10;;;;;;;;;;4907965;29;20051;-87
2022/06/14 13:06:25;;;;;;;0.20;0.10;;;;;;;;;;4922935;29;20075;-86
2022/06/14 13:08:55;;;;;;;0.20;0.10;;;;;;;;;;4906919;29;20070;-91
2022/06/14 13:11:26;;;;;;;0.20;0.10;;;;;;;;;;4907494;29;20051;-90
2022/06/14 13:13:59;;;;;;;0.20;0.10;;;;;;;;;;4906513;29;20231;-88
2022/06/14 13:16:27;;;;;;;;;;;;;;;;;;4904864;29;20431;-89
2022/06/14 13:19:17;;;;;;;;;;;;;;;;;;;;;
2022/06/14 13:22:09;;;;;;;0.20;0.10;;;;;;;;;;4908780;29;20048;-89
2022/06/14 13:25:05;;;;;;;0.30;0.17;;;;;;;;;;4910722;29;20500;-90
2022/06/14 13:27:40;;;;;;;0.43;0.10;;;;;;;;;;4886149;29;20600;-89
2022/06/14 13:30:43;;;;;;;0.20;0.10;;;;;;;;;;4905389;29;20496;-88
2022/06/14 13:33:36;;;;;;;0.20;0.10;;;;;;;;;;4902492;29;20044;-91
2022/06/14 13:39:27;;;;;;;0.20;0.10;;;;;;;;;;4917701;29;20040;-91
2022/06/14 13:42:32;;;;;;;;;;;;;;;;;;;;;
2022/06/14 13:48:57;;;;;;;0.20;0.10;;;;;;;;;;4884791;29;20037;-89
2022/06/14 13:52:19;;;;;;;;;;;;;;;;;;;;;
2022/06/14 13:58:58;;;;;;;0.20;0.10;;;;;;;;;;4888020;29;20047;-89
2022/06/14 14:01:38;;;;;;;0.20;0.08;;;;;;;;;;4915309;29;20055;-88
2022/06/14 14:04:24;;;;;;;0.20;0.10;;;;;;;;;;4904686;29;20082;-89
2022/06/14 14:06:59;;;;;;;0.20;0.10;;;;;;;;;;4908724;29;20043;-89
2022/06/14 14:12:51;;;;;;;0.20;0.10;;;;;;;;;;4907225;29;20103;-89
2022/06/14 14:15:42;;;;;;;0.20;0.20;;;;;;;;;;4901320;29;20039;-89
2022/06/14 14:18:39;;;;;;;0.20;0.10;;;;;;;;;;4914848;29;20071;-87
2022/06/14 14:21:05;;;;;;;0.20;0.10;;;;;;;;;;4907028;29;20048;-89
2022/06/14 14:23:39;;;;;;;0.20;0.10;;;;;;;;;;4911624;29;20046;-88
2022/06/14 14:26:21;;;;;;;0.90;0.30;;;;;;;;;;4917258;29;20036;-88
2022/06/14 14:29:04;;;;;;;0.20;0.10;;;;;;;;;;4914302;29;20036;-88
2022/06/14 14:31:49;;;;;;;0.20;0.10;;;;;;;;;;4909070;29;20040;-89
2022/06/14 14:34:15;;;;;;;0.20;0.10;;;;;;;;;;4901671;29;20405;-89
2022/06/14 14:36:48;;;;;;;0.20;0.10;;;;;;;;;;4901041;29;20036;-88
2022/06/14 14:39:33;;;;;;;0.20;0.10;;;;;;;;;;4908929;29;20043;-90
2022/06/14 14:42:05;;;;;;;0.20;0.10;;;;;;;;;;4899505;29;20134;-89
2022/06/14 14:44:46;;;;;;;0.20;0.10;;;;;;;;;;4899714;29;20460;-89
2022/06/14 14:47:44;;;;;;;;;;;;;;;;;;;;;
2022/06/14 14:53:49;;;;;;;0.30;0.17;;;;;;;;;;4882151;29;20101;-90
2022/06/14 14:56:36;;;;;;;0.22;0.10;;;;;;;;;;4887851;29;20066;-91
2022/06/14 16:00:08;;;;;;;0.20;0.10;;;;;;;;;;4964916;28;20101;-88
2022/06/14 16:02:40;;;;;;;0.20;0.17;;;;;;;;;;4933436;28;21842;-88
2022/06/14 16:05:15;;;;;;;4.90;0.32;;;;;;;;;;4948010;28;20054;-89
2022/06/14 16:08:00;;;;;;;0.20;0.10;;;;;;;;;;4935092;28;20099;-88
2022/06/14 16:10:29;;;;;;;0.20;0.10;;;;;;;;;;4945946;28;20039;-89
2022/06/14 16:13:08;;;;;;;0.20;0.10;;;;;;;;;;4937549;28;20027;-88
2022/06/14 16:15:43;;;;;;;0.20;0.10;;;;;;;;;;4952844;28;20456;-87
2022/06/14 16:18:43;;;;;;;0.20;0.00;;;;;;;;;;4947201;28;20031;-88
2022/06/14 16:21:20;;;;;;;0.20;0.10;;;;;;;;;;4952538;28;20115;-86
2022/06/14 16:23:46;;;;;;;0.20;0.10;;;;;;;;;;4935781;28;20043;-87
2022/06/14 16:26:36;;;;;;;0.20;0.10;;;;;;;;;;4935048;28;20071;-87
2022/06/14 16:29:06;;;;;;;0.20;0.10;;;;;;;;;;4927838;28;20047;-87
2022/06/14 16:31:54;;;;;;;0.20;0.10;;;;;;;;;;4944136;28;20038;-88
2022/06/14 16:34:35;;;;;;;0.20;0.10;;;;;;;;;;4940428;28;20432;-88
2022/06/14 16:37:11;;;;;;;0.20;0.10;;;;;;;;;;4939699;28;20094;-87
2022/06/14 16:39:50;;;;;;;0.20;0.10;;;;;;;;;;4931801;28;20049;-88
2022/06/14 16:42:20;;;;;;;0.20;0.10;;;;;;;;;;4941646;28;20046;-88
2022/06/14 16:45:09;;;;;;;0.20;0.03;;;;;;;;;;4942606;28;20035;-87
2022/06/14 16:48:04;;;;;;;0.20;0.10;;;;;;;;;;4923354;28;20158;-87
2022/06/14 16:50:30;;;;;;;0.20;0.10;;;;;;;;;;4946800;28;20077;-89
2022/06/14 16:53:05;;;;;;;0.20;0.10;;;;;;;;;;4947636;28;20170;-87
2022/06/14 16:55:50;;;;;;;0.20;0.10;;;;;;;;;;4956113;28;20046;-87
2022/06/14 16:58:29;;;;;;;0.20;0.10;;;;;;;;;;4954461;28;20510;-86
2022/06/14 17:00:55;;;;;;;0.20;0.10;;;;;;;;;;4949403;28;20038;-88
2022/06/14 17:03:42;;;;;;;0.20;0.10;;;;;;;;;;4952304;28;20143;-88
2022/06/14 17:06:28;;;;;;;1.02;0.93;;;;;;;;;;4949345;28;20098;-87
2022/06/14 17:09:00;;;;;;;0.35;0.30;;;;;;;;;;4944106;28;20852;-88
2022/06/14 17:11:26;;;;;;;;;;;;;;;;;;4933121;28;20077;-90
2022/06/14 17:14:11;;;;;;;0.20;0.10;;;;;;;;;;4939414;28;20040;-87
2022/06/14 17:16:49;;;;;;;0.30;0.30;;;;;;;;;;4942114;28;21493;-89
2022/06/14 17:19:26;;;;;;;0.20;0.10;;;;;;;;;;4943647;28;20042;-86
2022/06/14 17:21:59;;;;;;;0.30;0.15;;;;;;;;;;4926015;28;20463;-88
2022/06/14 17:24:49;;;;;;;0.20;0.10;;;19.90;99.90;;;;;;4931836;28;20531;-88
2022/06/14 17:31:09;;;;;;;0.40;0.30;;;18.80;92.20;;;;;;4938375;28;20038;-87
2022/06/14 17:34:06;;;;;;;0.20;0.10;;;;;;;;;;4936464;28;20570;-88
2022/06/14 17:37:17;;;;;;;;;;;;;;;;;;;;;
2022/06/14 17:43:04;;;;;;;0.20;0.10;;;;;;;;;;4915399;28;20123;-87
2022/06/14 17:45:39;;;;;;;0.20;0.10;;;;;;;;;;4917323;28;20051;-88